createdAt,value
2018-12-21T00:01:27.587Z,4.35
2018-12-21T00:04:29.376Z,4.34
2018-12-21T00:07:31.313Z,4.37
2018-12-21T00:10:33.125Z,4.41
2018-12-21T00:13:34.976Z,4.46
2018-12-21T00:16:36.689Z,4.55
2018-12-21T00:19:38.481Z,4.48
2018-12-21T00:22:40.234Z,4.44
2018-12-21T00:25:42.086Z,4.41
2018-12-21T00:28:43.826Z,4.39
2018-12-21T00:31:51.570Z,4.40
2018-12-21T00:34:59.399Z,4.39
2018-12-21T00:38:07.190Z,4.39
2018-12-21T00:41:14.178Z,4.39
2018-12-21T00:44:18.028Z,4.40
2018-12-21T00:47:19.779Z,4.34
2018-12-21T00:50:21.587Z,4.35
2018-12-21T00:53:23.407Z,4.32
2018-12-21T00:56:25.226Z,4.32
2018-12-21T00:59:27.036Z,4.36
2018-12-21T01:02:28.803Z,4.38
2018-12-21T01:05:30.737Z,4.41
2018-12-21T01:08:33.705Z,4.40
2018-12-21T01:11:35.761Z,4.37
2018-12-21T01:14:37.546Z,4.36
2018-12-21T01:17:39.388Z,4.37
2018-12-21T01:20:42.335Z,4.41
2018-12-21T01:23:44.103Z,4.48
2018-12-21T01:26:45.903Z,4.50
2018-12-21T01:29:47.774Z,4.49
2018-12-21T01:32:49.557Z,4.49
2018-12-21T01:35:51.406Z,4.54
2018-12-21T01:38:53.145Z,4.57
2018-12-21T01:41:54.906Z,4.65
2018-12-21T01:44:56.662Z,4.73
2018-12-21T01:47:58.439Z,4.80
2018-12-21T01:51:00.276Z,4.87
2018-12-21T01:54:02.042Z,4.93
2018-12-21T01:57:03.998Z,4.98
2018-12-21T02:00:07.847Z,4.93
2018-12-21T02:03:09.718Z,4.90
2018-12-21T02:06:11.469Z,4.91
2018-12-21T02:09:13.267Z,4.91
2018-12-21T02:12:15.036Z,4.93
2018-12-21T02:15:16.827Z,4.94
2018-12-21T02:18:18.547Z,4.98
2018-12-21T02:21:20.332Z,5.00
2018-12-21T02:24:22.090Z,5.06
2018-12-21T02:27:23.926Z,5.05
2018-12-21T02:30:25.669Z,5.04
2018-12-21T02:33:27.508Z,5.03
2018-12-21T02:36:29.239Z,4.99
2018-12-21T02:39:31.045Z,5.02
2018-12-21T02:42:32.791Z,5.04
2018-12-21T02:45:34.589Z,5.03
2018-12-21T02:48:36.298Z,5.00
2018-12-21T02:51:38.181Z,4.99
2018-12-21T02:54:39.942Z,4.99
2018-12-21T02:57:41.804Z,4.99
2018-12-21T03:00:43.587Z,5.05
2018-12-21T03:03:45.382Z,5.03
2018-12-21T03:06:47.215Z,5.08
2018-12-21T03:09:48.938Z,5.05
2018-12-21T03:12:50.707Z,5.08
2018-12-21T03:15:52.494Z,5.13
2018-12-21T03:18:54.247Z,5.23
2018-12-21T03:21:56.060Z,5.25
2018-12-21T03:24:57.863Z,5.27
2018-12-21T03:27:59.729Z,5.36
2018-12-21T03:31:01.743Z,5.43
2018-12-21T03:34:03.573Z,5.40
2018-12-21T03:37:05.329Z,5.32
2018-12-21T03:40:07.202Z,5.33
2018-12-21T03:43:08.988Z,5.27
2018-12-21T03:46:10.962Z,5.26
2018-12-21T03:49:12.888Z,5.29
2018-12-21T03:52:24.038Z,5.31
2018-12-21T03:55:18.626Z,5.25
2018-12-21T03:58:20.465Z,5.17
2018-12-21T04:01:22.311Z,5.09
2018-12-21T04:04:24.029Z,5.05
2018-12-21T04:07:25.804Z,5.01
2018-12-21T04:10:27.628Z,5.05
2018-12-21T04:13:29.379Z,5.01
2018-12-21T04:16:31.166Z,4.98
2018-12-21T04:19:32.981Z,4.97
2018-12-21T04:22:34.790Z,4.96
2018-12-21T04:25:36.526Z,4.93
2018-12-21T04:28:38.449Z,4.95
2018-12-21T04:31:40.251Z,4.88
2018-12-21T04:34:42.031Z,4.83
2018-12-21T04:37:43.827Z,4.76
2018-12-21T04:40:45.624Z,4.66
2018-12-21T04:43:47.888Z,4.57
2018-12-21T04:46:49.675Z,4.43
2018-12-21T04:49:51.416Z,4.35
2018-12-21T04:52:53.299Z,4.36
2018-12-21T04:55:55.087Z,4.23
2018-12-21T04:58:56.933Z,4.14
2018-12-21T05:01:58.723Z,4.06
2018-12-21T05:05:00.508Z,3.98
2018-12-21T05:08:02.303Z,3.89
2018-12-21T05:11:04.063Z,3.90
2018-12-21T05:14:07.951Z,3.91
2018-12-21T05:17:09.747Z,3.92
2018-12-21T05:20:11.647Z,3.87
2018-12-21T05:23:13.432Z,3.88
2018-12-21T05:26:16.143Z,3.89
2018-12-21T05:29:17.999Z,3.89
2018-12-21T05:32:19.781Z,3.94
2018-12-21T05:35:21.566Z,3.91
2018-12-21T05:38:23.277Z,3.95
2018-12-21T05:41:25.118Z,4.08
2018-12-21T05:44:26.890Z,4.15
2018-12-21T05:47:28.951Z,4.13
2018-12-21T05:50:30.894Z,4.15
2018-12-21T05:53:32.717Z,4.16
2018-12-21T05:56:34.458Z,4.11
2018-12-21T05:59:36.217Z,4.07
2018-12-21T06:02:38.016Z,4.01
2018-12-21T06:05:39.795Z,4.11
2018-12-21T06:08:41.825Z,4.21
2018-12-21T06:11:43.606Z,4.26
2018-12-21T06:14:45.442Z,4.29
2018-12-21T06:17:47.223Z,4.40
2018-12-21T06:20:49.252Z,4.46
2018-12-21T06:23:51.054Z,4.50
2018-12-21T06:26:52.852Z,4.57
2018-12-21T06:29:54.684Z,4.65
2018-12-21T06:32:56.454Z,4.73
2018-12-21T06:35:58.288Z,4.76
2018-12-21T06:39:00.161Z,4.72
2018-12-21T06:42:02.096Z,4.63
2018-12-21T06:45:04.908Z,4.60
2018-12-21T06:48:06.807Z,4.55
2018-12-21T06:51:08.678Z,4.56
2018-12-21T06:54:10.454Z,4.59
2018-12-21T06:57:12.271Z,4.71
2018-12-21T07:00:14.158Z,4.77
2018-12-21T07:03:17.233Z,4.76
2018-12-21T07:06:19.346Z,4.83
2018-12-21T07:09:21.187Z,4.84
2018-12-21T07:12:22.926Z,4.82
2018-12-21T07:15:24.808Z,4.91
2018-12-21T07:18:26.728Z,4.98
2018-12-21T07:21:28.513Z,5.19
2018-12-21T07:24:30.291Z,5.58
2018-12-21T07:27:32.111Z,6.39
2018-12-21T07:30:33.929Z,7.07
2018-12-21T07:33:35.731Z,6.68
2018-12-21T07:36:37.796Z,6.24
2018-12-21T07:39:39.609Z,5.98
2018-12-21T07:42:41.419Z,5.83
2018-12-21T07:45:43.324Z,5.83
2018-12-21T07:48:45.369Z,5.79
2018-12-21T07:51:47.162Z,5.80
2018-12-21T07:54:48.972Z,5.82
2018-12-21T07:57:50.730Z,5.85
2018-12-21T08:00:52.547Z,5.83
2018-12-21T08:03:54.287Z,5.78
2018-12-21T08:06:56.094Z,5.74
2018-12-21T08:09:57.980Z,5.77
2018-12-21T08:13:00.114Z,5.81
2018-12-21T08:16:02.109Z,5.73
2018-12-21T08:19:03.926Z,5.76
2018-12-21T08:22:05.774Z,5.86
2018-12-21T08:25:07.782Z,5.95
2018-12-21T08:28:09.749Z,6.08
2018-12-21T08:31:11.567Z,6.15
2018-12-21T08:34:13.285Z,6.23
2018-12-21T08:37:15.131Z,6.24
2018-12-21T08:40:16.974Z,6.28
2018-12-21T08:43:18.796Z,6.33
2018-12-21T08:46:20.585Z,6.48
2018-12-21T08:49:22.410Z,6.55
2018-12-21T08:52:24.157Z,6.51
2018-12-21T08:55:26.027Z,6.47
2018-12-21T08:58:27.923Z,6.50
2018-12-21T09:01:29.787Z,6.58
2018-12-21T09:04:32.261Z,6.64
2018-12-21T09:07:34.556Z,6.70
2018-12-21T09:10:36.378Z,6.64
2018-12-21T09:13:38.226Z,6.66
2018-12-21T09:16:41.255Z,6.69
2018-12-21T09:19:43.086Z,6.77
2018-12-21T09:22:44.911Z,6.94
2018-12-21T09:25:46.735Z,7.06
2018-12-21T09:28:48.681Z,7.22
2018-12-21T09:31:50.555Z,7.27
2018-12-21T09:34:52.446Z,7.17
2018-12-21T09:37:54.224Z,7.16
2018-12-21T09:40:57.158Z,7.22
2018-12-21T09:43:59.357Z,7.20
2018-12-21T09:47:01.382Z,7.18
2018-12-21T09:50:04.799Z,7.27
2018-12-21T09:53:06.620Z,7.28
2018-12-21T09:56:08.305Z,7.22
2018-12-21T09:59:10.087Z,7.36
2018-12-21T10:02:11.909Z,7.37
2018-12-21T10:05:14.633Z,7.33
2018-12-21T10:08:16.725Z,7.39
2018-12-21T10:11:18.491Z,7.35
2018-12-21T10:14:20.446Z,7.43
2018-12-21T10:17:22.256Z,7.50
2018-12-21T10:20:24.145Z,7.61
2018-12-21T10:23:26.094Z,7.62
2018-12-21T10:26:27.935Z,7.59
2018-12-21T10:29:29.767Z,7.54
2018-12-21T10:32:31.495Z,7.52
2018-12-21T10:35:33.220Z,7.52
2018-12-21T10:38:35.055Z,7.48
2018-12-21T10:41:36.972Z,7.55
2018-12-21T10:44:38.837Z,7.60
2018-12-21T10:47:40.655Z,7.53
2018-12-21T10:50:42.430Z,7.42
2018-12-21T10:53:46.726Z,7.29
2018-12-21T10:56:48.703Z,7.20
2018-12-21T10:59:50.511Z,7.18
2018-12-21T11:02:52.512Z,7.18
2018-12-21T11:05:54.361Z,7.35
2018-12-21T11:08:56.064Z,7.46
2018-12-21T11:11:57.880Z,7.51
2018-12-21T11:14:59.824Z,7.54
2018-12-21T11:18:01.558Z,7.62
2018-12-21T11:21:03.433Z,7.59
2018-12-21T11:24:05.279Z,7.56
2018-12-21T11:27:07.026Z,7.59
2018-12-21T11:30:08.923Z,7.61
2018-12-21T11:33:10.767Z,7.64
2018-12-21T11:36:12.603Z,7.71
2018-12-21T11:39:14.463Z,7.63
2018-12-21T11:42:16.263Z,7.52
2018-12-21T11:45:18.230Z,7.36
2018-12-21T11:48:20.035Z,7.44
2018-12-21T11:51:21.844Z,7.49
2018-12-21T11:54:23.625Z,7.58
2018-12-21T11:57:25.489Z,7.55
2018-12-21T12:00:27.231Z,7.43
2018-12-21T12:03:29.092Z,7.40
2018-12-21T12:06:31.050Z,7.36
2018-12-21T12:09:32.854Z,7.41
2018-12-21T12:12:34.675Z,7.48
2018-12-21T12:15:36.627Z,7.55
2018-12-21T12:18:38.604Z,7.53
2018-12-21T12:21:40.665Z,7.60
2018-12-21T12:24:42.604Z,7.61
2018-12-21T12:27:44.412Z,7.65
2018-12-21T12:30:46.159Z,7.67
2018-12-21T12:33:47.970Z,7.64
2018-12-21T12:36:49.937Z,7.65
2018-12-21T12:39:51.761Z,7.67
2018-12-21T12:42:53.555Z,7.61
2018-12-21T12:45:55.413Z,7.65
2018-12-21T12:48:57.938Z,7.69
2018-12-21T12:51:59.732Z,7.68
2018-12-21T12:55:02.790Z,7.67
2018-12-21T12:58:05.257Z,7.62
2018-12-21T13:01:07.014Z,7.55
2018-12-21T13:04:08.858Z,7.44
2018-12-21T13:07:10.734Z,7.44
2018-12-21T13:10:12.634Z,7.42
2018-12-21T13:13:14.467Z,7.34
2018-12-21T13:16:16.273Z,7.31
2018-12-21T13:19:18.354Z,7.19
2018-12-21T13:22:20.364Z,7.16
2018-12-21T13:25:22.366Z,7.09
2018-12-21T13:28:24.165Z,7.01
2018-12-21T13:31:25.954Z,6.93
2018-12-21T13:34:27.809Z,6.88
2018-12-21T13:37:29.603Z,6.80
2018-12-21T13:40:31.403Z,6.76
2018-12-21T13:43:33.239Z,6.73
2018-12-21T13:46:35.083Z,6.75
2018-12-21T13:49:37.094Z,6.76
2018-12-21T13:52:38.947Z,6.67
2018-12-21T13:55:41.969Z,6.58
2018-12-21T13:58:43.745Z,6.57
2018-12-21T14:01:45.504Z,6.63
2018-12-21T14:04:47.354Z,6.68
2018-12-21T14:07:49.185Z,6.75
2018-12-21T14:10:51.026Z,6.73
2018-12-21T14:13:52.805Z,6.75
2018-12-21T14:16:54.661Z,6.75
2018-12-21T14:19:56.496Z,6.78
2018-12-21T14:22:58.410Z,6.81
2018-12-21T14:26:00.210Z,6.77
2018-12-21T14:29:02.086Z,6.66
2018-12-21T14:32:03.880Z,6.50
2018-12-21T14:35:05.767Z,6.26
2018-12-21T14:38:07.591Z,6.12
2018-12-21T14:41:09.488Z,6.04
2018-12-21T14:44:11.394Z,5.99
2018-12-21T14:47:13.333Z,5.96
2018-12-21T14:50:15.390Z,5.98
2018-12-21T14:53:17.301Z,6.08
2018-12-21T14:56:19.267Z,6.10
2018-12-21T14:59:21.164Z,6.04
2018-12-21T15:02:22.985Z,5.98
2018-12-21T15:05:24.896Z,5.92
2018-12-21T15:08:26.892Z,5.90
2018-12-21T15:11:28.779Z,5.85
2018-12-21T15:14:30.684Z,5.89
2018-12-21T15:17:32.489Z,5.99
2018-12-21T15:20:34.358Z,6.07
2018-12-21T15:23:36.397Z,6.00
2018-12-21T15:26:38.228Z,5.95
2018-12-21T15:29:41.125Z,5.95
2018-12-21T15:32:43.391Z,5.95
2018-12-21T15:35:45.192Z,6.02
2018-12-21T15:38:47.098Z,6.02
2018-12-21T15:41:48.970Z,6.03
2018-12-21T15:44:51.185Z,6.05
2018-12-21T15:47:53.251Z,6.02
2018-12-21T15:50:55.237Z,5.95
2018-12-21T15:53:57.090Z,5.80
2018-12-21T15:56:59.085Z,5.77
2018-12-21T16:00:00.853Z,5.82
2018-12-21T16:03:02.883Z,5.90
2018-12-21T16:06:04.725Z,6.04
2018-12-21T16:09:06.857Z,6.22
2018-12-21T16:12:08.812Z,6.39
2018-12-21T16:15:10.774Z,6.46
2018-12-21T16:18:12.617Z,6.53
2018-12-21T16:21:14.508Z,6.53
2018-12-21T16:24:16.504Z,6.55
2018-12-21T16:27:18.406Z,6.61
2018-12-21T16:30:20.411Z,6.65
2018-12-21T16:33:22.629Z,6.75
2018-12-21T16:36:24.419Z,6.84
2018-12-21T16:39:26.344Z,6.93
2018-12-21T16:42:28.269Z,6.90
2018-12-21T16:45:30.247Z,6.93
2018-12-21T16:48:32.391Z,6.91
2018-12-21T16:51:34.346Z,6.92
2018-12-21T16:54:36.387Z,6.89
2018-12-21T16:57:38.266Z,6.87
2018-12-21T17:00:40.371Z,6.82
2018-12-21T17:03:42.362Z,6.77
2018-12-21T17:06:44.439Z,6.72
2018-12-21T17:09:47.487Z,6.74
2018-12-21T17:12:49.282Z,6.76
2018-12-21T17:15:51.084Z,6.72
2018-12-21T17:18:52.855Z,6.67
2018-12-21T17:21:54.639Z,6.63
2018-12-21T17:24:56.530Z,6.62
2018-12-21T17:27:58.305Z,6.57
2018-12-21T17:31:00.272Z,6.55
2018-12-21T17:34:02.302Z,6.55
2018-12-21T17:37:04.236Z,6.51
2018-12-21T17:40:07.412Z,6.57
2018-12-21T17:43:09.367Z,6.57
2018-12-21T17:46:11.296Z,6.63
2018-12-21T17:49:13.180Z,6.65
2018-12-21T17:52:15.019Z,6.65
2018-12-21T17:55:16.916Z,6.70
2018-12-21T17:58:18.752Z,6.76
2018-12-21T18:01:20.620Z,6.75
2018-12-21T18:04:22.654Z,6.69
2018-12-21T18:07:24.400Z,6.67
2018-12-21T18:10:26.301Z,6.53
2018-12-21T18:13:28.130Z,6.57
2018-12-21T18:16:29.961Z,6.50
2018-12-21T18:19:31.835Z,6.35
2018-12-21T18:22:33.793Z,6.33
2018-12-21T18:25:35.894Z,6.28
2018-12-21T18:28:37.766Z,6.24
2018-12-21T18:31:43.985Z,6.23
2018-12-21T18:34:45.952Z,6.22
2018-12-21T18:37:48.428Z,6.17
2018-12-21T18:40:50.453Z,6.19
2018-12-21T18:43:52.529Z,6.20
2018-12-21T18:46:54.495Z,6.16
2018-12-21T18:49:56.484Z,6.16
2018-12-21T18:52:58.345Z,6.13
2018-12-21T18:56:00.393Z,6.19
2018-12-21T18:59:02.283Z,6.22
2018-12-21T19:02:04.522Z,6.23
2018-12-21T19:05:07.578Z,6.23
2018-12-21T19:08:09.705Z,6.22
2018-12-21T19:11:11.633Z,6.25
2018-12-21T19:14:13.507Z,6.31
2018-12-21T19:17:15.512Z,6.29
2018-12-21T19:20:17.398Z,6.28
2018-12-21T19:23:19.237Z,6.27
2018-12-21T19:26:21.187Z,6.25
2018-12-21T19:29:23.132Z,6.26
2018-12-21T19:32:24.902Z,6.30
2018-12-21T19:35:28.777Z,6.27
2018-12-21T19:38:30.644Z,6.24
2018-12-21T19:41:32.744Z,6.33
2018-12-21T19:44:34.602Z,6.36
2018-12-21T19:47:36.520Z,6.39
2018-12-21T19:50:38.365Z,6.42
2018-12-21T19:53:40.238Z,6.42
2018-12-21T19:56:44.693Z,6.44
2018-12-21T19:59:46.660Z,6.47
2018-12-21T20:02:48.536Z,6.46
2018-12-21T20:05:50.648Z,6.56
2018-12-21T20:08:52.714Z,6.49
2018-12-21T20:11:54.555Z,6.51
2018-12-21T20:14:56.436Z,6.53
2018-12-21T20:17:58.236Z,6.55
2018-12-21T20:21:00.024Z,6.57
2018-12-21T20:24:01.821Z,6.58
2018-12-21T20:27:13.061Z,6.62
2018-12-21T20:30:11.056Z,6.64
2018-12-21T20:33:12.947Z,6.70
2018-12-21T20:36:14.909Z,6.75
2018-12-21T20:39:17.469Z,6.70
2018-12-21T20:42:19.275Z,6.79
2018-12-21T20:45:21.019Z,6.81
2018-12-21T20:48:22.949Z,6.83
2018-12-21T20:51:24.964Z,6.93
2018-12-21T20:54:26.929Z,6.92
2018-12-21T20:57:28.824Z,7.02
2018-12-21T21:00:30.703Z,7.11
2018-12-21T21:03:32.502Z,7.21
2018-12-21T21:06:34.334Z,7.28
2018-12-21T21:09:36.170Z,7.33
2018-12-21T21:12:38.505Z,7.34
2018-12-21T21:15:40.312Z,7.47
2018-12-21T21:18:42.133Z,7.46
2018-12-21T21:21:43.907Z,7.58
2018-12-21T21:24:45.795Z,7.67
2018-12-21T21:27:48.039Z,7.73
2018-12-21T21:30:49.890Z,7.81
2018-12-21T21:33:51.710Z,7.93
2018-12-21T21:36:53.507Z,8.06
2018-12-21T21:39:55.344Z,8.11
2018-12-21T21:42:57.669Z,8.20
2018-12-21T21:45:59.896Z,8.30
2018-12-21T21:49:01.847Z,8.45
2018-12-21T21:52:03.658Z,8.58
2018-12-21T21:55:05.749Z,8.65
2018-12-21T21:58:08.982Z,8.73
2018-12-21T22:01:10.820Z,8.76
2018-12-21T22:04:12.575Z,8.86
2018-12-21T22:07:14.377Z,8.86
2018-12-21T22:10:16.735Z,8.96
2018-12-21T22:13:18.545Z,8.98
2018-12-21T22:16:20.405Z,8.98
2018-12-21T22:19:22.178Z,9.05
2018-12-21T22:22:24.003Z,9.10
2018-12-21T22:25:25.787Z,9.13
2018-12-21T22:28:27.665Z,9.16
2018-12-21T22:31:29.547Z,9.09
2018-12-21T22:34:31.347Z,9.01
2018-12-21T22:37:33.515Z,8.95
2018-12-21T22:40:35.299Z,8.89
2018-12-21T22:43:37.209Z,8.85
2018-12-21T22:46:39.145Z,8.86
2018-12-21T22:49:40.967Z,8.87
2018-12-21T22:52:42.864Z,8.89
2018-12-21T22:55:45.105Z,8.90
2018-12-21T22:58:47.068Z,8.91
2018-12-21T23:01:48.904Z,8.88
2018-12-21T23:04:50.764Z,8.87
2018-12-21T23:07:52.753Z,8.90
2018-12-21T23:10:54.973Z,8.89
2018-12-21T23:13:56.798Z,8.90
2018-12-21T23:16:58.662Z,8.91
2018-12-21T23:20:00.422Z,8.91
2018-12-21T23:23:02.220Z,8.94
2018-12-21T23:26:04.038Z,8.97
2018-12-21T23:29:05.914Z,9.06
2018-12-21T23:32:07.663Z,9.16
2018-12-21T23:35:09.492Z,9.13
2018-12-21T23:38:11.468Z,9.06
2018-12-21T23:41:13.301Z,8.94
2018-12-21T23:44:15.076Z,8.91
2018-12-21T23:47:16.882Z,8.85
2018-12-21T23:50:18.681Z,8.80
2018-12-21T23:53:20.455Z,8.74
2018-12-21T23:56:22.270Z,8.75
2018-12-21T23:59:24.124Z,8.72
